Aidamar — ICSJ — position and weather

sailwx.info

Track history (hours):
 
Tides and Currents Weather Stations Pressure Air Temp Water Temp Dewpoint Dewpoint Depression Visibility Wind Speed Wind Dir Waves Ship Positions

Aidamar

Last reported at 2017-Mar-25 01:30 UTC. Time now 2017-Mar-28 12:06 UTC.
Position N 09°33' W 079°56'.

Length 253 m; draft 7.3 m.

Type: Passenger vessel. MMSI: 247312900.

Date/timePositionNaut miles runAvg speedWind from/ knotsBaromVisibWave heightAir tempDewpointWater temp
2017-Mar-25 01:30N 09°33' W 079°56'11 9.0
2017-Mar-25 00:16N 09°22' W 079°54'0 0.0
2017-Mar-24 23:25N 09°22' W 079°54'0 0.0
2017-Mar-24 22:31N 09°22' W 079°54'0 0.0
2017-Mar-24 21:31N 09°22' W 079°54'0 0.0
2017-Mar-24 20:28N 09°22' W 079°54'0 0.0
2017-Mar-24 19:25N 09°22' W 079°54'0 0.0
2017-Mar-24 18:25N 09°22' W 079°54'0 0.0
2017-Mar-24 17:07N 09°22' W 079°54'0 0.0
2017-Mar-24 16:28N 09°22' W 079°54'0 0.0
2017-Mar-24 15:31N 09°22' W 079°54'0 0.0
2017-Mar-24 14:31N 09°22' W 079°54'2 2.1
2017-Mar-24 13:33N 09°24' W 079°54'  
2017-Mar-20 03:34N 16°56' W 062°24'7 6.7
2017-Mar-20 02:33N 17°02' W 062°21'6 6.5
2017-Mar-20 01:33N 17°05' W 062°15'7 6.9
2017-Mar-20 00:33N 17°07' W 062°08'7 6.9
2017-Mar-19 23:33N 17°09' W 062°01'7 6.8
2017-Mar-19 22:33N 17°08' W 061°54'3 2.9
2017-Mar-19 21:32N 17°07' W 061°51'0 0.0
2017-Mar-19 20:32N 17°07' W 061°51'0 0.0
2017-Mar-19 19:32N 17°07' W 061°51'0 0.0
2017-Mar-19 18:32N 17°07' W 061°51'0 0.0
2017-Mar-19 17:32N 17°07' W 061°51'0 0.0
2017-Mar-19 16:32N 17°07' W 061°51'0 0.0
2017-Mar-19 15:32N 17°07' W 061°51'0 0.0
2017-Mar-19 14:32N 17°07' W 061°51'0 0.0
2017-Mar-19 13:32N 17°07' W 061°51'0 0.0
2017-Mar-19 12:32N 17°07' W 061°51'0 0.0
2017-Mar-19 11:32N 17°07' W 061°51'7 7.3
2017-Mar-19 10:34N 17°10' W 061°58'1313.3
2017-Mar-19 09:34N 17°07' W 062°11'1714.7
2017-Mar-19 08:25N 16°58' W 062°26'148 4.5
2017-Mar-17 23:33N 18°24' W 064°33'1 0.1
2017-Mar-17 12:33N 18°24' W 064°34'7 7.2
2017-Mar-17 11:33N 18°32' W 064°35'1515.0
2017-Mar-17 10:33N 18°35' W 064°51'  
Track history (hours):
 
Tides and Currents Weather Stations Pressure Air Temp Water Temp Dewpoint Dewpoint Depression Visibility Wind Speed Wind Dir Waves Ship Positions

Aidamar

Last reported at 2017-Mar-25 01:30 UTC. Time now 2017-Mar-28 12:06 UTC.
Position N 09°33' W 079°56'.

Length 253 m; draft 7.3 m.

Type: Passenger vessel. MMSI: 247312900.

Date/timePositionNaut miles runAvg speedWind from/ knotsBaromVisibWave heightAir tempDewpointWater temp
2017-Mar-25 01:30N 09°33' W 079°56'11 9.0
2017-Mar-25 00:16N 09°22' W 079°54'0 0.0
2017-Mar-24 23:25N 09°22' W 079°54'0 0.0
2017-Mar-24 22:31N 09°22' W 079°54'0 0.0
2017-Mar-24 21:31N 09°22' W 079°54'0 0.0
2017-Mar-24 20:28N 09°22' W 079°54'0 0.0
2017-Mar-24 19:25N 09°22' W 079°54'0 0.0
2017-Mar-24 18:25N 09°22' W 079°54'0 0.0
2017-Mar-24 17:07N 09°22' W 079°54'0 0.0
2017-Mar-24 16:28N 09°22' W 079°54'0 0.0
2017-Mar-24 15:31N 09°22' W 079°54'0 0.0
2017-Mar-24 14:31N 09°22' W 079°54'2 2.1
2017-Mar-24 13:33N 09°24' W 079°54'  
2017-Mar-20 03:34N 16°56' W 062°24'7 6.7
2017-Mar-20 02:33N 17°02' W 062°21'6 6.5
2017-Mar-20 01:33N 17°05' W 062°15'7 6.9
2017-Mar-20 00:33N 17°07' W 062°08'7 6.9
2017-Mar-19 23:33N 17°09' W 062°01'7 6.8
2017-Mar-19 22:33N 17°08' W 061°54'3 2.9
2017-Mar-19 21:32N 17°07' W 061°51'0 0.0
2017-Mar-19 20:32N 17°07' W 061°51'0 0.0
2017-Mar-19 19:32N 17°07' W 061°51'0 0.0
2017-Mar-19 18:32N 17°07' W 061°51'0 0.0
2017-Mar-19 17:32N 17°07' W 061°51'0 0.0
2017-Mar-19 16:32N 17°07' W 061°51'0 0.0
2017-Mar-19 15:32N 17°07' W 061°51'0 0.0
2017-Mar-19 14:32N 17°07' W 061°51'0 0.0
2017-Mar-19 13:32N 17°07' W 061°51'0 0.0
2017-Mar-19 12:32N 17°07' W 061°51'0 0.0
2017-Mar-19 11:32N 17°07' W 061°51'7 7.3
2017-Mar-19 10:34N 17°10' W 061°58'1313.3
2017-Mar-19 09:34N 17°07' W 062°11'1714.7
2017-Mar-19 08:25N 16°58' W 062°26'148 4.5
2017-Mar-17 23:33N 18°24' W 064°33'1 0.1
2017-Mar-17 12:33N 18°24' W 064°34'7 7.2
2017-Mar-17 11:33N 18°32' W 064°35'1515.0
2017-Mar-17 10:33N 18°35' W 064°51'  

Dump ship's entire track history